Aviation Digital Data Service (ADDS)

Output produced by METARs form (1812 UTC 14 August 2018)
found at http://www.aviationweather.gov/adds/metars/
 
NZAA 141800Z AUTO 24018KT 9999 FEW029/// SCT037/// 12/09 Q1000 TEMPO 4000 +SHRA BKN012 FEW020CB
TAF NZAA 141704Z 1418/1518 26020G30KT 9999 -SHRA FEW020 BKN035 
     TEMPO 1418/1420 4000 +SHRA BKN012 FEW020CB 
     TEMPO 1420/1504 6000 SHRA FEW020TCU 
     BECMG 1506/1508 24015G25KT 
     BECMG 1510/1512 24010KT
       
NZCH 141800Z AUTO 24006KT 9999 FEW049/// OVC065/// 08/06 Q1000 NOSIG
TAF NZCH 141704Z 1418/1518 22010KT 9999 SCT040 
     BECMG 1503/1505 06010KT
       
TAF NZQN 141111Z 1412/1506 02005KT 9999 FEW040 
     TEMPO 1412/1418 BKN014
       
NZWN 141800Z AUTO 20027KT 9999 -DZ BKN012/// BKN030/// OVC035/// 11/09 Q0996 TEMPO 5000 RADZ BKN006
TAF NZWN 141704Z 1418/1518 22025G35KT 9999 -RA BKN012 
     TEMPO 1418/1420 5000 RADZ BKN006 FEW020TCU 
     BECMG 1420/1422 BKN020 
     FM150300 18015KT 9999 SCT055 
     BECMG 1509/1511 36010KT